sensor_id;sensor_type;location;lat;lon;timestamp;temperature;humidity
26803;DHT22;14378;51.796;5.808;2023-04-01T00:00:01;10.70;99.90
26803;DHT22;14378;51.796;5.808;2023-04-01T00:04:33;10.70;99.90
26803;DHT22;14378;51.796;5.808;2023-04-01T00:06:34;10.70;99.90
26803;DHT22;14378;51.796;5.808;2023-04-01T00:08:35;10.70;99.90
26803;DHT22;14378;51.796;5.808;2023-04-01T00:10:36;10.70;99.90
26803;DHT22;14378;51.796;5.808;2023-04-01T00:12:38;10.80;99.90
26803;DHT22;14378;51.796;5.808;2023-04-01T00:14:40;10.80;99.90
26803;DHT22;14378;51.796;5.808;2023-04-01T00:16:41;10.80;99.90
26803;DHT22;14378;51.796;5.808;2023-04-01T00:18:42;10.70;99.90
26803;DHT22;14378;51.796;5.808;2023-04-01T00:20:47;10.70;99.90
26803;DHT22;14378;51.796;5.808;2023-04-01T00:22:48;10.70;99.90
26803;DHT22;14378;51.796;5.808;2023-04-01T00:24:49;10.80;99.90
26803;DHT22;14378;51.796;5.808;2023-04-01T00:26:51;10.70;99.90
26803;DHT22;14378;51.796;5.808;2023-04-01T00:29:00;10.70;99.90
26803;DHT22;14378;51.796;5.808;2023-04-01T00:31:08;10.70;99.90
26803;DHT22;14378;51.796;5.808;2023-04-01T00:33:10;10.70;99.90
26803;DHT22;14378;51.796;5.808;2023-04-01T00:35:11;10.70;99.90
26803;DHT22;14378;51.796;5.808;2023-04-01T00:37:13;10.70;99.90
26803;DHT22;14378;51.796;5.808;2023-04-01T00:39:14;10.70;99.90
26803;DHT22;14378;51.796;5.808;2023-04-01T00:41:15;10.70;99.90
26803;DHT22;14378;51.796;5.808;2023-04-01T00:43:20;10.80;99.90
26803;DHT22;14378;51.796;5.808;2023-04-01T00:47:29;10.70;99.90
26803;DHT22;14378;51.796;5.808;2023-04-01T00:49:36;10.70;99.90
26803;DHT22;14378;51.796;5.808;2023-04-01T00:51:39;10.70;99.90
26803;DHT22;14378;51.796;5.808;2023-04-01T00:53:44;10.70;99.90
26803;DHT22;14378;51.796;5.808;2023-04-01T00:56:16;10.70;99.90
26803;DHT22;14378;51.796;5.808;2023-04-01T00:58:18;10.70;99.90
26803;DHT22;14378;51.796;5.808;2023-04-01T01:00:21;10.70;99.90
26803;DHT22;14378;51.796;5.808;2023-04-01T01:02:26;10.70;99.90
26803;DHT22;14378;51.796;5.808;2023-04-01T01:04:31;10.70;99.90
26803;DHT22;14378;51.796;5.808;2023-04-01T01:09:08;10.70;99.90
26803;DHT22;14378;51.796;5.808;2023-04-01T01:11:14;10.70;99.90
26803;DHT22;14378;51.796;5.808;2023-04-01T01:15:46;10.70;99.90
26803;DHT22;14378;51.796;5.808;2023-04-01T01:18:18;10.70;99.90
26803;DHT22;14378;51.796;5.808;2023-04-01T01:35:24;10.80;99.90
26803;DHT22;14378;51.796;5.808;2023-04-01T01:37:27;10.80;99.90
26803;DHT22;14378;51.796;5.808;2023-04-01T01:39:31;10.80;99.90
26803;DHT22;14378;51.796;5.808;2023-04-01T01:41:35;10.80;99.90
26803;DHT22;14378;51.796;5.808;2023-04-01T01:43:44;10.80;99.90
26803;DHT22;14378;51.796;5.808;2023-04-01T01:45:55;10.80;99.90
26803;DHT22;14378;51.796;5.808;2023-04-01T01:47:59;10.80;99.90
26803;DHT22;14378;51.796;5.808;2023-04-01T01:50:01;10.80;99.90
26803;DHT22;14378;51.796;5.808;2023-04-01T01:52:03;10.80;99.90
26803;DHT22;14378;51.796;5.808;2023-04-01T01:54:04;10.80;99.90
26803;DHT22;14378;51.796;5.808;2023-04-01T01:56:06;10.80;99.90
26803;DHT22;14378;51.796;5.808;2023-04-01T01:58:35;10.80;99.90
26803;DHT22;14378;51.796;5.808;2023-04-01T02:00:46;10.80;99.90
26803;DHT22;14378;51.796;5.808;2023-04-01T02:02:49;10.80;99.90
26803;DHT22;14378;51.796;5.808;2023-04-01T02:04:51;10.80;99.90
26803;DHT22;14378;51.796;5.808;2023-04-01T02:07:02;10.80;99.90
26803;DHT22;14378;51.796;5.808;2023-04-01T02:09:06;10.80;99.90
26803;DHT22;14378;51.796;5.808;2023-04-01T02:11:12;10.80;99.90
26803;DHT22;14378;51.796;5.808;2023-04-01T02:13:29;10.80;99.90
26803;DHT22;14378;51.796;5.808;2023-04-01T02:15:32;10.80;99.90
26803;DHT22;14378;51.796;5.808;2023-04-01T02:17:43;10.80;99.90
26803;DHT22;14378;51.796;5.808;2023-04-01T02:21:55;10.80;99.90
26803;DHT22;14378;51.796;5.808;2023-04-01T02:24:00;10.80;99.90
26803;DHT22;14378;51.796;5.808;2023-04-01T02:26:06;10.80;99.90
26803;DHT22;14378;51.796;5.808;2023-04-01T02:28:09;10.80;99.90
26803;DHT22;14378;51.796;5.808;2023-04-01T02:30:12;10.80;99.90
26803;DHT22;14378;51.796;5.808;2023-04-01T02:32:16;10.80;99.90
26803;DHT22;14378;51.796;5.808;2023-04-01T02:34:19;10.80;99.90
26803;DHT22;14378;51.796;5.808;2023-04-01T02:36:24;10.80;99.90
26803;DHT22;14378;51.796;5.808;2023-04-01T02:38:26;10.80;99.90
26803;DHT22;14378;51.796;5.808;2023-04-01T02:40:27;10.80;99.90
26803;DHT22;14378;51.796;5.808;2023-04-01T02:42:28;10.80;99.90
26803;DHT22;14378;51.796;5.808;2023-04-01T02:44:29;10.70;99.90
26803;DHT22;14378;51.796;5.808;2023-04-01T02:46:30;10.80;99.90
26803;DHT22;14378;51.796;5.808;2023-04-01T02:48:31;10.70;99.90
26803;DHT22;14378;51.796;5.808;2023-04-01T02:50:32;10.70;99.90
26803;DHT22;14378;51.796;5.808;2023-04-01T02:52:34;10.70;99.90
26803;DHT22;14378;51.796;5.808;2023-04-01T02:54:39;10.70;99.90
26803;DHT22;14378;51.796;5.808;2023-04-01T02:56:41;10.70;99.90
26803;DHT22;14378;51.796;5.808;2023-04-01T02:58:41;10.70;99.90
26803;DHT22;14378;51.796;5.808;2023-04-01T03:00:43;10.60;99.90
26803;DHT22;14378;51.796;5.808;2023-04-01T03:02:44;10.60;99.90
26803;DHT22;14378;51.796;5.808;2023-04-01T03:04:48;10.60;99.90
26803;DHT22;14378;51.796;5.808;2023-04-01T03:06:49;10.60;99.90
26803;DHT22;14378;51.796;5.808;2023-04-01T03:08:50;10.60;99.90
26803;DHT22;14378;51.796;5.808;2023-04-01T03:10:51;10.60;99.90
26803;DHT22;14378;51.796;5.808;2023-04-01T03:12:53;10.50;99.90
26803;DHT22;14378;51.796;5.808;2023-04-01T03:14:54;10.50;99.90
26803;DHT22;14378;51.796;5.808;2023-04-01T03:16:55;10.50;99.90
26803;DHT22;14378;51.796;5.808;2023-04-01T03:18:56;10.50;99.90
26803;DHT22;14378;51.796;5.808;2023-04-01T03:21:20;10.50;99.90
26803;DHT22;14378;51.796;5.808;2023-04-01T03:23:21;10.50;99.90
26803;DHT22;14378;51.796;5.808;2023-04-01T03:25:24;10.50;99.90
26803;DHT22;14378;51.796;5.808;2023-04-01T03:27:26;10.50;99.90
26803;DHT22;14378;51.796;5.808;2023-04-01T03:29:28;10.40;99.90
26803;DHT22;14378;51.796;5.808;2023-04-01T03:31:30;10.50;99.90
26803;DHT22;14378;51.796;5.808;2023-04-01T03:33:32;10.50;99.90
26803;DHT22;14378;51.796;5.808;2023-04-01T03:35:33;10.50;99.90
26803;DHT22;14378;51.796;5.808;2023-04-01T03:37:38;10.50;99.90
26803;DHT22;14378;51.796;5.808;2023-04-01T03:39:40;10.50;99.90
26803;DHT22;14378;51.796;5.808;2023-04-01T03:41:41;10.40;99.90
26803;DHT22;14378;51.796;5.808;2023-04-01T03:43:42;10.40;99.90
26803;DHT22;14378;51.796;5.808;2023-04-01T03:45:49;10.40;99.90
26803;DHT22;14378;51.796;5.808;2023-04-01T03:47:51;10.40;99.90
26803;DHT22;14378;51.796;5.808;2023-04-01T03:49:56;10.40;99.90
26803;DHT22;14378;51.796;5.808;2023-04-01T03:51:58;10.30;99.90
26803;DHT22;14378;51.796;5.808;2023-04-01T03:53:59;10.40;99.90
26803;DHT22;14378;51.796;5.808;2023-04-01T03:56:04;10.30;99.90
26803;DHT22;14378;51.796;5.808;2023-04-01T03:58:07;10.30;99.90
26803;DHT22;14378;51.796;5.808;2023-04-01T04:00:09;10.40;99.90
26803;DHT22;14378;51.796;5.808;2023-04-01T04:02:14;10.30;99.90
26803;DHT22;14378;51.796;5.808;2023-04-01T04:04:15;10.30;99.90
26803;DHT22;14378;51.796;5.808;2023-04-01T04:06:18;10.30;99.90
26803;DHT22;14378;51.796;5.808;2023-04-01T04:08:24;10.30;99.90
26803;DHT22;14378;51.796;5.808;2023-04-01T04:10:26;10.30;99.90
26803;DHT22;14378;51.796;5.808;2023-04-01T04:12:27;10.40;99.90
26803;DHT22;14378;51.796;5.808;2023-04-01T04:14:28;10.40;99.90
26803;DHT22;14378;51.796;5.808;2023-04-01T04:16:29;10.40;99.90
26803;DHT22;14378;51.796;5.808;2023-04-01T04:18:34;10.30;99.90
26803;DHT22;14378;51.796;5.808;2023-04-01T04:20:35;10.30;99.90
26803;DHT22;14378;51.796;5.808;2023-04-01T04:22:36;10.30;99.90
26803;DHT22;14378;51.796;5.808;2023-04-01T04:24:40;10.30;99.90
26803;DHT22;14378;51.796;5.808;2023-04-01T04:26:44;10.30;99.90
26803;DHT22;14378;51.796;5.808;2023-04-01T04:28:45;10.30;99.90
26803;DHT22;14378;51.796;5.808;2023-04-01T04:30:49;10.30;99.90
26803;DHT22;14378;51.796;5.808;2023-04-01T04:32:50;10.20;99.90
26803;DHT22;14378;51.796;5.808;2023-04-01T04:34:51;10.20;99.90
26803;DHT22;14378;51.796;5.808;2023-04-01T04:36:54;10.20;99.90
26803;DHT22;14378;51.796;5.808;2023-04-01T04:39:00;10.20;99.90
26803;DHT22;14378;51.796;5.808;2023-04-01T04:41:09;10.30;99.90
26803;DHT22;14378;51.796;5.808;2023-04-01T04:43:12;10.30;99.90
26803;DHT22;14378;51.796;5.808;2023-04-01T04:45:14;10.20;99.90
26803;DHT22;14378;51.796;5.808;2023-04-01T04:47:24;10.20;99.90
26803;DHT22;14378;51.796;5.808;2023-04-01T04:49:25;10.30;99.90
26803;DHT22;14378;51.796;5.808;2023-04-01T04:51:26;10.20;99.90
26803;DHT22;14378;51.796;5.808;2023-04-01T04:53:28;10.20;99.90
26803;DHT22;14378;51.796;5.808;2023-04-01T04:55:29;10.20;99.90
26803;DHT22;14378;51.796;5.808;2023-04-01T04:57:50;10.20;99.90
26803;DHT22;14378;51.796;5.808;2023-04-01T04:59:53;10.20;99.90
26803;DHT22;14378;51.796;5.808;2023-04-01T05:02:09;10.20;99.90
26803;DHT22;14378;51.796;5.808;2023-04-01T05:04:10;10.20;99.90
26803;DHT22;14378;51.796;5.808;2023-04-01T05:06:14;10.20;99.90
26803;DHT22;14378;51.796;5.808;2023-04-01T05:08:16;10.20;99.90
26803;DHT22;14378;51.796;5.808;2023-04-01T05:10:17;10.20;99.90
26803;DHT22;14378;51.796;5.808;2023-04-01T05:12:18;10.20;99.90
26803;DHT22;14378;51.796;5.808;2023-04-01T05:14:34;10.10;99.90
26803;DHT22;14378;51.796;5.808;2023-04-01T05:16:43;10.10;99.90
26803;DHT22;14378;51.796;5.808;2023-04-01T05:18:44;10.10;99.90
26803;DHT22;14378;51.796;5.808;2023-04-01T05:20:47;10.10;99.90
26803;DHT22;14378;51.796;5.808;2023-04-01T05:22:56;10.10;99.90
26803;DHT22;14378;51.796;5.808;2023-04-01T05:24:57;10.10;99.90
26803;DHT22;14378;51.796;5.808;2023-04-01T05:26:58;10.10;99.90
26803;DHT22;14378;51.796;5.808;2023-04-01T05:29:00;10.10;99.90
26803;DHT22;14378;51.796;5.808;2023-04-01T05:31:02;10.10;99.90
26803;DHT22;14378;51.796;5.808;2023-04-01T05:33:10;10.20;99.90
26803;DHT22;14378;51.796;5.808;2023-04-01T05:35:12;10.20;99.90
26803;DHT22;14378;51.796;5.808;2023-04-01T05:37:13;10.20;99.90
26803;DHT22;14378;51.796;5.808;2023-04-01T05:39:14;10.20;99.90
26803;DHT22;14378;51.796;5.808;2023-04-01T05:41:16;10.20;99.90
26803;DHT22;14378;51.796;5.808;2023-04-01T05:43:20;10.20;99.90
26803;DHT22;14378;51.796;5.808;2023-04-01T05:45:24;10.30;99.90
26803;DHT22;14378;51.796;5.808;2023-04-01T05:47:38;10.30;99.90
26803;DHT22;14378;51.796;5.808;2023-04-01T05:49:39;10.30;99.90
26803;DHT22;14378;51.796;5.808;2023-04-01T05:51:40;10.40;99.90
26803;DHT22;14378;51.796;5.808;2023-04-01T05:53:43;10.30;99.90
26803;DHT22;14378;51.796;5.808;2023-04-01T05:55:44;10.30;99.90
26803;DHT22;14378;51.796;5.808;2023-04-01T05:57:48;10.40;99.90
26803;DHT22;14378;51.796;5.808;2023-04-01T05:59:53;10.40;99.90
26803;DHT22;14378;51.796;5.808;2023-04-01T06:01:54;10.40;99.90
26803;DHT22;14378;51.796;5.808;2023-04-01T06:03:55;10.50;99.90
26803;DHT22;14378;51.796;5.808;2023-04-01T06:05:56;10.50;99.90
26803;DHT22;14378;51.796;5.808;2023-04-01T06:08:11;10.50;99.90
26803;DHT22;14378;51.796;5.808;2023-04-01T06:10:18;10.50;99.90
26803;DHT22;14378;51.796;5.808;2023-04-01T06:17:17;10.60;99.90
26803;DHT22;14378;51.796;5.808;2023-04-01T06:19:41;10.70;99.90
26803;DHT22;14378;51.796;5.808;2023-04-01T06:22:08;10.60;99.90
26803;DHT22;14378;51.796;5.808;2023-04-01T06:24:31;10.70;99.90
26803;DHT22;14378;51.796;5.808;2023-04-01T06:36:31;10.80;99.90
26803;DHT22;14378;51.796;5.808;2023-04-01T06:46:09;10.90;99.90
26803;DHT22;14378;51.796;5.808;2023-04-01T06:49:05;10.90;99.90
26803;DHT22;14378;51.796;5.808;2023-04-01T06:53:54;11.00;99.90
26803;DHT22;14378;51.796;5.808;2023-04-01T06:56:21;11.00;99.90
26803;DHT22;14378;51.796;5.808;2023-04-01T07:00:40;11.00;99.90
26803;DHT22;14378;51.796;5.808;2023-04-01T07:03:00;11.00;99.90
26803;DHT22;14378;51.796;5.808;2023-04-01T07:05:03;11.00;99.90
26803;DHT22;14378;51.796;5.808;2023-04-01T07:07:14;11.10;99.90
26803;DHT22;14378;51.796;5.808;2023-04-01T07:09:32;11.10;99.90
26803;DHT22;14378;51.796;5.808;2023-04-01T07:12:06;11.10;99.90
26803;DHT22;14378;51.796;5.808;2023-04-01T07:14:38;11.10;99.90
26803;DHT22;14378;51.796;5.808;2023-04-01T07:21:50;11.10;99.90
26803;DHT22;14378;51.796;5.808;2023-04-01T07:24:11;11.10;99.90
26803;DHT22;14378;51.796;5.808;2023-04-01T07:26:23;11.10;99.90
26803;DHT22;14378;51.796;5.808;2023-04-01T07:28:43;11.10;99.90
26803;DHT22;14378;51.796;5.808;2023-04-01T07:34:06;11.20;99.90
26803;DHT22;14378;51.796;5.808;2023-04-01T07:36:21;11.20;99.90
26803;DHT22;14378;51.796;5.808;2023-04-01T07:38:59;11.20;99.90
26803;DHT22;14378;51.796;5.808;2023-04-01T07:43:59;11.20;99.90
26803;DHT22;14378;51.796;5.808;2023-04-01T07:46:28;11.10;99.90
26803;DHT22;14378;51.796;5.808;2023-04-01T07:51:27;11.10;99.90
26803;DHT22;14378;51.796;5.808;2023-04-01T07:55:42;11.20;99.90
26803;DHT22;14378;51.796;5.808;2023-04-01T07:57:53;11.20;99.90
26803;DHT22;14378;51.796;5.808;2023-04-01T08:05:22;11.20;99.90
26803;DHT22;14378;51.796;5.808;2023-04-01T08:20:28;11.20;99.90
26803;DHT22;14378;51.796;5.808;2023-04-01T08:22:42;11.20;99.90
26803;DHT22;14378;51.796;5.808;2023-04-01T08:24:56;11.20;99.90
26803;DHT22;14378;51.796;5.808;2023-04-01T08:27:06;11.30;99.90
26803;DHT22;14378;51.796;5.808;2023-04-01T08:29:14;11.30;99.90
26803;DHT22;14378;51.796;5.808;2023-04-01T08:31:22;11.30;99.90
26803;DHT22;14378;51.796;5.808;2023-04-01T08:33:30;11.30;99.90
26803;DHT22;14378;51.796;5.808;2023-04-01T08:38:57;11.40;99.90
26803;DHT22;14378;51.796;5.808;2023-04-01T08:58:29;11.50;99.90
26803;DHT22;14378;51.796;5.808;2023-04-01T09:03:25;11.60;99.90
26803;DHT22;14378;51.796;5.808;2023-04-01T09:10:25;11.70;99.90
26803;DHT22;14378;51.796;5.808;2023-04-01T09:17:41;11.70;99.90
26803;DHT22;14378;51.796;5.808;2023-04-01T09:27:27;11.80;99.90
26803;DHT22;14378;51.796;5.808;2023-04-01T09:34:30;11.90;99.90
26803;DHT22;14378;51.796;5.808;2023-04-01T09:36:38;11.90;99.90
26803;DHT22;14378;51.796;5.808;2023-04-01T10:10:07;11.90;99.90
26803;DHT22;14378;51.796;5.808;2023-04-01T10:15:03;11.90;99.90
26803;DHT22;14378;51.796;5.808;2023-04-01T10:36:58;11.90;99.90
26803;DHT22;14378;51.796;5.808;2023-04-01T10:59:12;12.20;99.90
26803;DHT22;14378;51.796;5.808;2023-04-01T11:19:49;12.10;99.90
26803;DHT22;14378;51.796;5.808;2023-04-01T11:27:20;12.00;99.90
26803;DHT22;14378;51.796;5.808;2023-04-01T11:49:41;12.50;99.90
26803;DHT22;14378;51.796;5.808;2023-04-01T11:57:23;12.70;99.90
26803;DHT22;14378;51.796;5.808;2023-04-01T12:04:48;12.80;99.90
26803;DHT22;14378;51.796;5.808;2023-04-01T12:21:36;12.90;99.90
26803;DHT22;14378;51.796;5.808;2023-04-01T12:26:35;13.10;99.90
26803;DHT22;14378;51.796;5.808;2023-04-01T12:28:59;13.10;99.90
26803;DHT22;14378;51.796;5.808;2023-04-01T12:45:34;13.20;99.90
26803;DHT22;14378;51.796;5.808;2023-04-01T12:50:16;13.10;99.90
26803;DHT22;14378;51.796;5.808;2023-04-01T12:56:58;13.10;99.90
26803;DHT22;14378;51.796;5.808;2023-04-01T12:59:19;13.10;99.90
26803;DHT22;14378;51.796;5.808;2023-04-01T13:06:41;13.00;99.90
26803;DHT22;14378;51.796;5.808;2023-04-01T13:09:01;13.10;99.90
26803;DHT22;14378;51.796;5.808;2023-04-01T13:11:44;13.10;99.90
26803;DHT22;14378;51.796;5.808;2023-04-01T13:15:52;13.10;99.90
26803;DHT22;14378;51.796;5.808;2023-04-01T13:22:51;13.10;99.90
26803;DHT22;14378;51.796;5.808;2023-04-01T13:27:41;13.10;99.90
26803;DHT22;14378;51.796;5.808;2023-04-01T13:38:48;12.90;99.90
26803;DHT22;14378;51.796;5.808;2023-04-01T13:43:58;12.90;99.90
26803;DHT22;14378;51.796;5.808;2023-04-01T13:47:59;12.90;99.90
26803;DHT22;14378;51.796;5.808;2023-04-01T14:04:44;12.60;99.90
26803;DHT22;14378;51.796;5.808;2023-04-01T14:06:59;12.60;99.90
26803;DHT22;14378;51.796;5.808;2023-04-01T14:09:25;12.60;99.90
26803;DHT22;14378;51.796;5.808;2023-04-01T14:12:00;12.70;99.90
26803;DHT22;14378;51.796;5.808;2023-04-01T14:14:18;12.70;99.90
26803;DHT22;14378;51.796;5.808;2023-04-01T14:16:55;12.80;99.90
26803;DHT22;14378;51.796;5.808;2023-04-01T14:25:47;12.90;99.90
26803;DHT22;14378;51.796;5.808;2023-04-01T14:28:20;12.90;99.90
26803;DHT22;14378;51.796;5.808;2023-04-01T14:40:28;13.00;99.90
26803;DHT22;14378;51.796;5.808;2023-04-01T14:49:40;12.90;99.90
26803;DHT22;14378;51.796;5.808;2023-04-01T14:51:42;12.90;99.90
26803;DHT22;14378;51.796;5.808;2023-04-01T14:56:41;12.80;99.90
26803;DHT22;14378;51.796;5.808;2023-04-01T14:58:45;12.70;99.90
26803;DHT22;14378;51.796;5.808;2023-04-01T15:01:13;12.70;99.90
26803;DHT22;14378;51.796;5.808;2023-04-01T15:08:22;12.60;99.90
26803;DHT22;14378;51.796;5.808;2023-04-01T15:12:41;12.70;99.90
26803;DHT22;14378;51.796;5.808;2023-04-01T15:14:54;12.80;99.90
26803;DHT22;14378;51.796;5.808;2023-04-01T15:17:18;12.80;99.90
26803;DHT22;14378;51.796;5.808;2023-04-01T15:45:11;12.90;99.90
26803;DHT22;14378;51.796;5.808;2023-04-01T15:50:06;12.90;99.90
26803;DHT22;14378;51.796;5.808;2023-04-01T16:01:13;12.90;99.90
26803;DHT22;14378;51.796;5.808;2023-04-01T16:03:18;12.90;99.90
26803;DHT22;14378;51.796;5.808;2023-04-01T16:05:31;12.90;99.90
26803;DHT22;14378;51.796;5.808;2023-04-01T16:07:56;12.90;99.90
26803;DHT22;14378;51.796;5.808;2023-04-01T16:17:49;12.90;99.90
26803;DHT22;14378;51.796;5.808;2023-04-01T16:22:08;12.90;99.90
26803;DHT22;14378;51.796;5.808;2023-04-01T16:24:34;12.90;99.90
26803;DHT22;14378;51.796;5.808;2023-04-01T16:26:52;13.00;99.90
26803;DHT22;14378;51.796;5.808;2023-04-01T16:29:03;12.90;99.90
26803;DHT22;14378;51.796;5.808;2023-04-01T16:39:15;12.90;99.90
26803;DHT22;14378;51.796;5.808;2023-04-01T16:41:26;12.90;99.90
26803;DHT22;14378;51.796;5.808;2023-04-01T16:43:46;12.90;99.90
26803;DHT22;14378;51.796;5.808;2023-04-01T16:51:07;12.80;99.90
26803;DHT22;14378;51.796;5.808;2023-04-01T16:53:32;12.70;99.90
26803;DHT22;14378;51.796;5.808;2023-04-01T16:58:14;12.70;99.90
26803;DHT22;14378;51.796;5.808;2023-04-01T17:29:29;12.50;99.90
26803;DHT22;14378;51.796;5.808;2023-04-01T17:34:01;12.40;99.90
26803;DHT22;14378;51.796;5.808;2023-04-01T17:38:40;12.40;99.90
26803;DHT22;14378;51.796;5.808;2023-04-01T17:43:37;12.30;99.90
26803;DHT22;14378;51.796;5.808;2023-04-01T17:45:49;12.30;99.90
26803;DHT22;14378;51.796;5.808;2023-04-01T17:48:24;12.30;99.90
26803;DHT22;14378;51.796;5.808;2023-04-01T17:58:05;12.10;99.90
26803;DHT22;14378;51.796;5.808;2023-04-01T18:00:37;12.10;99.90
26803;DHT22;14378;51.796;5.808;2023-04-01T18:17:23;11.80;99.90
26803;DHT22;14378;51.796;5.808;2023-04-01T18:21:50;11.80;99.90
26803;DHT22;14378;51.796;5.808;2023-04-01T18:26:24;11.70;99.90
26803;DHT22;14378;51.796;5.808;2023-04-01T18:31:16;11.70;99.90
26803;DHT22;14378;51.796;5.808;2023-04-01T18:33:44;11.60;99.90
26803;DHT22;14378;51.796;5.808;2023-04-01T18:38:12;11.50;99.90
26803;DHT22;14378;51.796;5.808;2023-04-01T18:40:34;11.50;99.90
26803;DHT22;14378;51.796;5.808;2023-04-01T18:44:51;11.30;99.90
26803;DHT22;14378;51.796;5.808;2023-04-01T18:47:21;11.30;99.90
26803;DHT22;14378;51.796;5.808;2023-04-01T18:56:30;11.30;99.90
26803;DHT22;14378;51.796;5.808;2023-04-01T18:58:46;11.30;99.90
26803;DHT22;14378;51.796;5.808;2023-04-01T19:03:40;11.20;99.90
26803;DHT22;14378;51.796;5.808;2023-04-01T19:05:47;11.20;99.90
26803;DHT22;14378;51.796;5.808;2023-04-01T19:07:56;11.10;99.90
26803;DHT22;14378;51.796;5.808;2023-04-01T19:17:29;11.10;99.90
26803;DHT22;14378;51.796;5.808;2023-04-01T19:32:01;11.20;99.90
26803;DHT22;14378;51.796;5.808;2023-04-01T19:36:45;11.10;99.90
26803;DHT22;14378;51.796;5.808;2023-04-01T19:38:57;11.10;99.90
26803;DHT22;14378;51.796;5.808;2023-04-01T19:48:09;10.90;99.90
26803;DHT22;14378;51.796;5.808;2023-04-01T19:52:50;10.80;99.90
26803;DHT22;14378;51.796;5.808;2023-04-01T19:57:50;10.80;99.90
26803;DHT22;14378;51.796;5.808;2023-04-01T20:00:07;10.80;99.90
26803;DHT22;14378;51.796;5.808;2023-04-01T20:04:42;10.80;99.90
26803;DHT22;14378;51.796;5.808;2023-04-01T20:12:05;10.70;99.90
26803;DHT22;14378;51.796;5.808;2023-04-01T20:16:53;10.60;99.90
26803;DHT22;14378;51.796;5.808;2023-04-01T20:18:58;10.60;99.90
26803;DHT22;14378;51.796;5.808;2023-04-01T20:23:41;10.60;99.90
26803;DHT22;14378;51.796;5.808;2023-04-01T20:25:51;10.50;99.90
26803;DHT22;14378;51.796;5.808;2023-04-01T20:38:36;10.30;99.90
26803;DHT22;14378;51.796;5.808;2023-04-01T20:40:49;10.30;99.90
26803;DHT22;14378;51.796;5.808;2023-04-01T20:50:11;10.20;99.90
26803;DHT22;14378;51.796;5.808;2023-04-01T20:53:11;10.20;99.90
26803;DHT22;14378;51.796;5.808;2023-04-01T21:02:03;10.10;99.90
26803;DHT22;14378;51.796;5.808;2023-04-01T21:08:35;10.10;99.90
26803;DHT22;14378;51.796;5.808;2023-04-01T21:20:01;10.00;99.90
26803;DHT22;14378;51.796;5.808;2023-04-01T21:31:29;10.00;99.90
26803;DHT22;14378;51.796;5.808;2023-04-01T21:38:43;9.90;99.90
26803;DHT22;14378;51.796;5.808;2023-04-01T21:48:06;9.70;99.90
26803;DHT22;14378;51.796;5.808;2023-04-01T21:58:15;9.60;99.90
26803;DHT22;14378;51.796;5.808;2023-04-01T22:01:26;9.60;99.90
26803;DHT22;14378;51.796;5.808;2023-04-01T22:05:28;9.60;99.90
26803;DHT22;14378;51.796;5.808;2023-04-01T22:08:20;9.50;99.90
26803;DHT22;14378;51.796;5.808;2023-04-01T22:10:30;9.50;99.90
26803;DHT22;14378;51.796;5.808;2023-04-01T22:12:35;9.60;99.90
26803;DHT22;14378;51.796;5.808;2023-04-01T22:19:19;9.40;99.90
26803;DHT22;14378;51.796;5.808;2023-04-01T22:26:47;9.30;99.90
26803;DHT22;14378;51.796;5.808;2023-04-01T22:29:00;9.30;99.90
26803;DHT22;14378;51.796;5.808;2023-04-01T22:31:05;9.20;99.90
26803;DHT22;14378;51.796;5.808;2023-04-01T22:35:56;9.20;99.90
26803;DHT22;14378;51.796;5.808;2023-04-01T22:47:17;9.10;99.90
26803;DHT22;14378;51.796;5.808;2023-04-01T22:49:29;9.10;99.90
26803;DHT22;14378;51.796;5.808;2023-04-01T22:52:02;9.10;99.90
26803;DHT22;14378;51.796;5.808;2023-04-01T22:54:27;9.00;99.90
26803;DHT22;14378;51.796;5.808;2023-04-01T22:56:40;9.00;99.90
26803;DHT22;14378;51.796;5.808;2023-04-01T22:59:11;9.00;99.90
26803;DHT22;14378;51.796;5.808;2023-04-01T23:01:24;9.00;99.90
26803;DHT22;14378;51.796;5.808;2023-04-01T23:03:30;9.00;99.90
26803;DHT22;14378;51.796;5.808;2023-04-01T23:05:37;9.00;99.90
26803;DHT22;14378;51.796;5.808;2023-04-01T23:08:00;8.90;99.90
26803;DHT22;14378;51.796;5.808;2023-04-01T23:10:05;8.90;99.90
26803;DHT22;14378;51.796;5.808;2023-04-01T23:12:16;8.80;99.90
26803;DHT22;14378;51.796;5.808;2023-04-01T23:16:36;8.80;99.90
26803;DHT22;14378;51.796;5.808;2023-04-01T23:27:41;8.70;99.90
26803;DHT22;14378;51.796;5.808;2023-04-01T23:29:46;8.70;99.90
26803;DHT22;14378;51.796;5.808;2023-04-01T23:32:01;8.70;99.90
26803;DHT22;14378;51.796;5.808;2023-04-01T23:34:26;8.70;99.90
26803;DHT22;14378;51.796;5.808;2023-04-01T23:36:29;8.70;99.90
26803;DHT22;14378;51.796;5.808;2023-04-01T23:39:14;8.80;99.90
26803;DHT22;14378;51.796;5.808;2023-04-01T23:40:55;8.80;99.90
26803;DHT22;14378;51.796;5.808;2023-04-01T23:42:56;8.70;99.90
26803;DHT22;14378;51.796;5.808;2023-04-01T23:45:05;8.70;99.90
26803;DHT22;14378;51.796;5.808;2023-04-01T23:47:20;8.80;99.90
26803;DHT22;14378;51.796;5.808;2023-04-01T23:49:34;8.70;99.90
26803;DHT22;14378;51.796;5.808;2023-04-01T23:51:39;8.60;99.90
26803;DHT22;14378;51.796;5.808;2023-04-01T23:53:47;8.50;99.90
26803;DHT22;14378;51.796;5.808;2023-04-01T23:55:56;8.50;99.90
